sensor_id;sensor_type;location;lat;lon;timestamp;P1;durP1;ratioP1;P2;durP2;ratioP2
787;SDS011;16074;42.708;23.312;2024-03-22T00:00:31;23.50;;;12.23;;
787;SDS011;16074;42.708;23.312;2024-03-22T00:02:56;20.73;;;12.80;;
787;SDS011;16074;42.708;23.312;2024-03-22T00:05:22;22.63;;;12.40;;
787;SDS011;16074;42.708;23.312;2024-03-22T00:07:47;26.00;;;13.60;;
787;SDS011;16074;42.708;23.312;2024-03-22T00:10:13;26.65;;;13.90;;
787;SDS011;16074;42.708;23.312;2024-03-22T00:12:38;26.10;;;13.90;;
787;SDS011;16074;42.708;23.312;2024-03-22T00:15:04;28.42;;;15.13;;
787;SDS011;16074;42.708;23.312;2024-03-22T00:17:29;27.92;;;14.70;;
787;SDS011;16074;42.708;23.312;2024-03-22T00:19:55;27.48;;;15.00;;
787;SDS011;16074;42.708;23.312;2024-03-22T00:22:21;28.55;;;14.45;;
787;SDS011;16074;42.708;23.312;2024-03-22T00:24:46;26.60;;;14.27;;
787;SDS011;16074;42.708;23.312;2024-03-22T00:27:11;28.13;;;13.18;;
787;SDS011;16074;42.708;23.312;2024-03-22T00:29:37;26.40;;;12.98;;
787;SDS011;16074;42.708;23.312;2024-03-22T00:32:03;23.25;;;12.18;;
787;SDS011;16074;42.708;23.312;2024-03-22T00:34:28;26.65;;;13.50;;
787;SDS011;16074;42.708;23.312;2024-03-22T00:36:54;30.93;;;12.57;;
787;SDS011;16074;42.708;23.312;2024-03-22T00:39:19;33.10;;;14.43;;
787;SDS011;16074;42.708;23.312;2024-03-22T00:41:44;25.90;;;13.43;;
787;SDS011;16074;42.708;23.312;2024-03-22T00:44:09;28.93;;;14.20;;
787;SDS011;16074;42.708;23.312;2024-03-22T00:46:35;28.83;;;15.57;;
787;SDS011;16074;42.708;23.312;2024-03-22T00:49:00;29.88;;;15.70;;
787;SDS011;16074;42.708;23.312;2024-03-22T00:51:26;28.93;;;17.27;;
787;SDS011;16074;42.708;23.312;2024-03-22T00:53:51;32.90;;;17.80;;
787;SDS011;16074;42.708;23.312;2024-03-22T00:56:16;30.43;;;16.30;;
787;SDS011;16074;42.708;23.312;2024-03-22T00:58:42;25.37;;;16.87;;
787;SDS011;16074;42.708;23.312;2024-03-22T01:01:07;32.80;;;16.37;;
787;SDS011;16074;42.708;23.312;2024-03-22T01:03:32;30.10;;;15.47;;
787;SDS011;16074;42.708;23.312;2024-03-22T01:05:57;32.73;;;16.10;;
787;SDS011;16074;42.708;23.312;2024-03-22T01:08:23;23.23;;;14.07;;
787;SDS011;16074;42.708;23.312;2024-03-22T01:10:48;26.17;;;13.90;;
787;SDS011;16074;42.708;23.312;2024-03-22T01:13:13;26.67;;;12.67;;
787;SDS011;16074;42.708;23.312;2024-03-22T01:15:38;26.03;;;12.37;;
787;SDS011;16074;42.708;23.312;2024-03-22T01:18:04;20.07;;;10.70;;
787;SDS011;16074;42.708;23.312;2024-03-22T01:20:29;23.40;;;10.80;;
787;SDS011;16074;42.708;23.312;2024-03-22T01:22:54;22.13;;;10.90;;
787;SDS011;16074;42.708;23.312;2024-03-22T01:25:20;23.97;;;10.50;;
787;SDS011;16074;42.708;23.312;2024-03-22T01:27:45;20.33;;;8.73;;
787;SDS011;16074;42.708;23.312;2024-03-22T01:30:10;18.67;;;9.77;;
787;SDS011;16074;42.708;23.312;2024-03-22T01:32:36;15.02;;;8.80;;
787;SDS011;16074;42.708;23.312;2024-03-22T01:35:01;20.27;;;9.45;;
787;SDS011;16074;42.708;23.312;2024-03-22T01:37:27;19.23;;;8.80;;
787;SDS011;16074;42.708;23.312;2024-03-22T01:39:52;17.50;;;8.70;;
787;SDS011;16074;42.708;23.312;2024-03-22T01:42:17;19.70;;;9.27;;
787;SDS011;16074;42.708;23.312;2024-03-22T01:44:42;20.60;;;10.07;;
787;SDS011;16074;42.708;23.312;2024-03-22T01:47:08;16.97;;;9.03;;
787;SDS011;16074;42.708;23.312;2024-03-22T01:49:33;14.43;;;8.60;;
787;SDS011;16074;42.708;23.312;2024-03-22T01:51:58;16.48;;;9.07;;
787;SDS011;16074;42.708;23.312;2024-03-22T01:54:24;16.70;;;8.90;;
787;SDS011;16074;42.708;23.312;2024-03-22T01:56:49;18.42;;;9.77;;
787;SDS011;16074;42.708;23.312;2024-03-22T01:59:14;17.23;;;9.00;;
787;SDS011;16074;42.708;23.312;2024-03-22T02:01:40;17.67;;;8.05;;
787;SDS011;16074;42.708;23.312;2024-03-22T02:04:05;16.30;;;7.97;;
787;SDS011;16074;42.708;23.312;2024-03-22T02:06:31;15.07;;;8.73;;
787;SDS011;16074;42.708;23.312;2024-03-22T02:08:57;15.55;;;8.90;;
787;SDS011;16074;42.708;23.312;2024-03-22T02:11:22;18.63;;;8.88;;
787;SDS011;16074;42.708;23.312;2024-03-22T02:13:48;21.30;;;8.05;;
787;SDS011;16074;42.708;23.312;2024-03-22T02:16:13;15.63;;;8.87;;
787;SDS011;16074;42.708;23.312;2024-03-22T02:18:39;14.33;;;8.00;;
787;SDS011;16074;42.708;23.312;2024-03-22T02:21:04;15.00;;;7.87;;
787;SDS011;16074;42.708;23.312;2024-03-22T02:23:36;17.83;;;8.00;;
787;SDS011;16074;42.708;23.312;2024-03-22T02:26:01;17.45;;;8.48;;
787;SDS011;16074;42.708;23.312;2024-03-22T02:28:27;16.15;;;8.07;;
787;SDS011;16074;42.708;23.312;2024-03-22T02:30:53;18.95;;;8.57;;
787;SDS011;16074;42.708;23.312;2024-03-22T02:33:18;17.63;;;8.90;;
787;SDS011;16074;42.708;23.312;2024-03-22T02:35:43;13.63;;;7.43;;
787;SDS011;16074;42.708;23.312;2024-03-22T02:38:10;18.75;;;8.18;;
787;SDS011;16074;42.708;23.312;2024-03-22T02:40:36;22.97;;;9.43;;
787;SDS011;16074;42.708;23.312;2024-03-22T02:43:01;18.63;;;9.03;;
787;SDS011;16074;42.708;23.312;2024-03-22T02:45:26;16.93;;;9.47;;
787;SDS011;16074;42.708;23.312;2024-03-22T02:47:51;16.50;;;9.40;;
787;SDS011;16074;42.708;23.312;2024-03-22T02:50:17;16.70;;;10.00;;
787;SDS011;16074;42.708;23.312;2024-03-22T02:52:42;19.83;;;8.93;;
787;SDS011;16074;42.708;23.312;2024-03-22T02:55:07;17.77;;;9.10;;
787;SDS011;16074;42.708;23.312;2024-03-22T02:57:32;17.17;;;9.35;;
787;SDS011;16074;42.708;23.312;2024-03-22T02:59:59;15.77;;;9.03;;
787;SDS011;16074;42.708;23.312;2024-03-22T03:02:24;17.45;;;8.80;;
787;SDS011;16074;42.708;23.312;2024-03-22T03:04:50;17.50;;;8.80;;
787;SDS011;16074;42.708;23.312;2024-03-22T03:07:15;19.67;;;9.47;;
787;SDS011;16074;42.708;23.312;2024-03-22T03:09:41;17.27;;;9.32;;
787;SDS011;16074;42.708;23.312;2024-03-22T03:12:06;19.07;;;9.80;;
787;SDS011;16074;42.708;23.312;2024-03-22T03:14:31;23.80;;;11.13;;
787;SDS011;16074;42.708;23.312;2024-03-22T03:16:57;22.87;;;12.50;;
787;SDS011;16074;42.708;23.312;2024-03-22T03:19:22;26.58;;;12.65;;
787;SDS011;16074;42.708;23.312;2024-03-22T03:21:47;23.83;;;12.37;;
787;SDS011;16074;42.708;23.312;2024-03-22T03:24:12;27.67;;;10.77;;
787;SDS011;16074;42.708;23.312;2024-03-22T03:26:38;20.15;;;10.10;;
787;SDS011;16074;42.708;23.312;2024-03-22T03:29:03;22.30;;;9.43;;
787;SDS011;16074;42.708;23.312;2024-03-22T03:31:28;17.67;;;8.13;;
787;SDS011;16074;42.708;23.312;2024-03-22T03:33:54;16.13;;;7.85;;
787;SDS011;16074;42.708;23.312;2024-03-22T03:36:19;13.33;;;7.33;;
787;SDS011;16074;42.708;23.312;2024-03-22T03:38:44;14.23;;;7.57;;
787;SDS011;16074;42.708;23.312;2024-03-22T03:41:09;18.33;;;8.67;;
787;SDS011;16074;42.708;23.312;2024-03-22T03:43:35;16.30;;;7.57;;
787;SDS011;16074;42.708;23.312;2024-03-22T03:46:00;17.50;;;8.50;;
787;SDS011;16074;42.708;23.312;2024-03-22T03:48:25;16.60;;;7.50;;
787;SDS011;16074;42.708;23.312;2024-03-22T03:50:52;16.90;;;8.77;;
787;SDS011;16074;42.708;23.312;2024-03-22T03:53:17;16.50;;;8.38;;
787;SDS011;16074;42.708;23.312;2024-03-22T03:55:42;17.23;;;8.43;;
787;SDS011;16074;42.708;23.312;2024-03-22T03:58:07;17.40;;;8.63;;
787;SDS011;16074;42.708;23.312;2024-03-22T04:00:33;14.63;;;7.57;;
787;SDS011;16074;42.708;23.312;2024-03-22T04:02:58;14.60;;;8.33;;
787;SDS011;16074;42.708;23.312;2024-03-22T04:05:23;18.77;;;8.87;;
787;SDS011;16074;42.708;23.312;2024-03-22T04:07:48;14.87;;;7.63;;
787;SDS011;16074;42.708;23.312;2024-03-22T04:10:14;13.87;;;7.37;;
787;SDS011;16074;42.708;23.312;2024-03-22T04:12:39;14.97;;;7.37;;
787;SDS011;16074;42.708;23.312;2024-03-22T04:15:04;18.47;;;7.63;;
787;SDS011;16074;42.708;23.312;2024-03-22T04:17:30;15.35;;;8.40;;
787;SDS011;16074;42.708;23.312;2024-03-22T04:19:55;22.67;;;10.93;;
787;SDS011;16074;42.708;23.312;2024-03-22T04:22:20;18.80;;;9.13;;
787;SDS011;16074;42.708;23.312;2024-03-22T04:24:45;16.33;;;8.57;;
787;SDS011;16074;42.708;23.312;2024-03-22T04:27:11;12.10;;;7.17;;
787;SDS011;16074;42.708;23.312;2024-03-22T04:29:36;12.63;;;6.57;;
787;SDS011;16074;42.708;23.312;2024-03-22T04:32:01;11.57;;;6.80;;
787;SDS011;16074;42.708;23.312;2024-03-22T04:34:26;18.70;;;8.05;;
787;SDS011;16074;42.708;23.312;2024-03-22T04:36:52;17.67;;;8.57;;
787;SDS011;16074;42.708;23.312;2024-03-22T04:39:19;13.90;;;7.68;;
787;SDS011;16074;42.708;23.312;2024-03-22T04:41:44;15.48;;;7.60;;
787;SDS011;16074;42.708;23.312;2024-03-22T04:44:09;14.90;;;8.40;;
787;SDS011;16074;42.708;23.312;2024-03-22T04:46:34;13.03;;;6.97;;
787;SDS011;16074;42.708;23.312;2024-03-22T04:49:00;17.37;;;7.47;;
787;SDS011;16074;42.708;23.312;2024-03-22T04:51:25;18.77;;;8.77;;
787;SDS011;16074;42.708;23.312;2024-03-22T04:53:50;16.20;;;7.60;;
787;SDS011;16074;42.708;23.312;2024-03-22T04:56:15;23.23;;;9.63;;
787;SDS011;16074;42.708;23.312;2024-03-22T04:58:41;19.37;;;9.23;;
787;SDS011;16074;42.708;23.312;2024-03-22T05:01:06;20.57;;;9.13;;
787;SDS011;16074;42.708;23.312;2024-03-22T05:03:31;23.17;;;9.03;;
787;SDS011;16074;42.708;23.312;2024-03-22T05:05:57;19.27;;;9.00;;
787;SDS011;16074;42.708;23.312;2024-03-22T05:08:22;17.65;;;9.02;;
787;SDS011;16074;42.708;23.312;2024-03-22T05:10:48;20.83;;;10.18;;
787;SDS011;16074;42.708;23.312;2024-03-22T05:13:13;22.20;;;10.05;;
787;SDS011;16074;42.708;23.312;2024-03-22T05:15:38;14.40;;;8.40;;
787;SDS011;16074;42.708;23.312;2024-03-22T05:18:04;21.37;;;10.23;;
787;SDS011;16074;42.708;23.312;2024-03-22T05:20:29;22.00;;;10.38;;
787;SDS011;16074;42.708;23.312;2024-03-22T05:22:55;20.50;;;9.82;;
787;SDS011;16074;42.708;23.312;2024-03-22T05:25:20;22.67;;;9.40;;
787;SDS011;16074;42.708;23.312;2024-03-22T05:27:45;19.90;;;9.17;;
787;SDS011;16074;42.708;23.312;2024-03-22T05:30:11;18.90;;;10.27;;
787;SDS011;16074;42.708;23.312;2024-03-22T05:32:38;18.10;;;10.15;;
787;SDS011;16074;42.708;23.312;2024-03-22T05:35:04;24.00;;;10.68;;
787;SDS011;16074;42.708;23.312;2024-03-22T05:37:29;21.33;;;10.70;;
787;SDS011;16074;42.708;23.312;2024-03-22T05:39:54;23.60;;;10.77;;
787;SDS011;16074;42.708;23.312;2024-03-22T05:42:20;23.30;;;11.10;;
787;SDS011;16074;42.708;23.312;2024-03-22T05:44:45;19.43;;;10.13;;
787;SDS011;16074;42.708;23.312;2024-03-22T05:47:10;25.15;;;11.48;;
787;SDS011;16074;42.708;23.312;2024-03-22T05:49:36;22.60;;;11.00;;
787;SDS011;16074;42.708;23.312;2024-03-22T05:52:01;25.27;;;11.63;;
787;SDS011;16074;42.708;23.312;2024-03-22T05:54:26;21.87;;;10.43;;
787;SDS011;16074;42.708;23.312;2024-03-22T05:56:51;26.43;;;11.47;;
787;SDS011;16074;42.708;23.312;2024-03-22T05:59:17;21.17;;;11.30;;
787;SDS011;16074;42.708;23.312;2024-03-22T06:01:42;19.10;;;10.20;;
787;SDS011;16074;42.708;23.312;2024-03-22T06:04:07;18.73;;;10.05;;
787;SDS011;16074;42.708;23.312;2024-03-22T06:06:34;19.93;;;10.60;;
787;SDS011;16074;42.708;23.312;2024-03-22T06:08:59;20.10;;;10.18;;
787;SDS011;16074;42.708;23.312;2024-03-22T06:11:28;21.90;;;11.00;;
787;SDS011;16074;42.708;23.312;2024-03-22T06:13:53;18.70;;;9.83;;
787;SDS011;16074;42.708;23.312;2024-03-22T06:16:18;16.10;;;8.83;;
787;SDS011;16074;42.708;23.312;2024-03-22T06:18:44;20.90;;;10.15;;
787;SDS011;16074;42.708;23.312;2024-03-22T06:21:09;16.85;;;9.55;;
787;SDS011;16074;42.708;23.312;2024-03-22T06:23:34;19.13;;;9.33;;
787;SDS011;16074;42.708;23.312;2024-03-22T06:26:00;18.80;;;10.48;;
787;SDS011;16074;42.708;23.312;2024-03-22T06:28:26;17.93;;;9.87;;
787;SDS011;16074;42.708;23.312;2024-03-22T06:30:51;18.33;;;8.75;;
787;SDS011;16074;42.708;23.312;2024-03-22T06:33:17;20.00;;;9.20;;
787;SDS011;16074;42.708;23.312;2024-03-22T06:35:42;16.50;;;8.13;;
787;SDS011;16074;42.708;23.312;2024-03-22T06:38:07;18.40;;;9.10;;
787;SDS011;16074;42.708;23.312;2024-03-22T06:40:34;13.77;;;8.10;;
787;SDS011;16074;42.708;23.312;2024-03-22T06:42:59;16.55;;;8.88;;
787;SDS011;16074;42.708;23.312;2024-03-22T06:45:24;19.03;;;9.27;;
787;SDS011;16074;42.708;23.312;2024-03-22T06:47:50;20.00;;;9.33;;
787;SDS011;16074;42.708;23.312;2024-03-22T06:50:15;22.90;;;10.13;;
787;SDS011;16074;42.708;23.312;2024-03-22T06:52:42;21.58;;;10.07;;
787;SDS011;16074;42.708;23.312;2024-03-22T06:55:08;20.00;;;10.73;;
787;SDS011;16074;42.708;23.312;2024-03-22T06:57:33;16.33;;;9.65;;
787;SDS011;16074;42.708;23.312;2024-03-22T07:00:01;14.48;;;9.43;;
787;SDS011;16074;42.708;23.312;2024-03-22T07:02:27;19.92;;;9.30;;
787;SDS011;16074;42.708;23.312;2024-03-22T07:04:52;18.77;;;9.27;;
787;SDS011;16074;42.708;23.312;2024-03-22T07:07:17;15.73;;;8.83;;
787;SDS011;16074;42.708;23.312;2024-03-22T07:09:43;15.32;;;7.97;;
787;SDS011;16074;42.708;23.312;2024-03-22T07:12:08;16.50;;;8.63;;
787;SDS011;16074;42.708;23.312;2024-03-22T07:14:33;17.67;;;9.13;;
787;SDS011;16074;42.708;23.312;2024-03-22T07:16:59;21.57;;;9.17;;
787;SDS011;16074;42.708;23.312;2024-03-22T07:19:25;21.33;;;9.27;;
787;SDS011;16074;42.708;23.312;2024-03-22T07:21:52;16.15;;;8.57;;
787;SDS011;16074;42.708;23.312;2024-03-22T07:24:17;18.20;;;9.50;;
787;SDS011;16074;42.708;23.312;2024-03-22T07:26:42;16.27;;;8.27;;
787;SDS011;16074;42.708;23.312;2024-03-22T07:29:08;15.23;;;8.73;;
787;SDS011;16074;42.708;23.312;2024-03-22T07:31:33;14.97;;;8.63;;
787;SDS011;16074;42.708;23.312;2024-03-22T07:33:58;15.90;;;7.40;;
787;SDS011;16074;42.708;23.312;2024-03-22T07:36:24;13.10;;;8.10;;
787;SDS011;16074;42.708;23.312;2024-03-22T07:38:51;18.17;;;8.60;;
787;SDS011;16074;42.708;23.312;2024-03-22T07:41:16;17.70;;;8.63;;
787;SDS011;16074;42.708;23.312;2024-03-22T07:43:42;14.27;;;7.23;;
787;SDS011;16074;42.708;23.312;2024-03-22T07:46:07;14.50;;;8.00;;
787;SDS011;16074;42.708;23.312;2024-03-22T07:48:32;11.82;;;6.45;;
787;SDS011;16074;42.708;23.312;2024-03-22T07:50:58;10.80;;;7.10;;
787;SDS011;16074;42.708;23.312;2024-03-22T07:53:24;13.05;;;6.03;;
787;SDS011;16074;42.708;23.312;2024-03-22T07:55:49;10.65;;;6.13;;
787;SDS011;16074;42.708;23.312;2024-03-22T07:58:14;10.55;;;5.28;;
787;SDS011;16074;42.708;23.312;2024-03-22T08:00:39;10.00;;;5.63;;
787;SDS011;16074;42.708;23.312;2024-03-22T08:03:05;10.13;;;5.28;;
787;SDS011;16074;42.708;23.312;2024-03-22T08:05:30;10.73;;;5.60;;
787;SDS011;16074;42.708;23.312;2024-03-22T08:07:56;8.20;;;4.50;;
787;SDS011;16074;42.708;23.312;2024-03-22T08:10:21;7.03;;;5.13;;
787;SDS011;16074;42.708;23.312;2024-03-22T08:12:46;12.07;;;5.82;;
787;SDS011;16074;42.708;23.312;2024-03-22T08:15:12;6.90;;;4.05;;
787;SDS011;16074;42.708;23.312;2024-03-22T08:17:37;8.45;;;3.78;;
787;SDS011;16074;42.708;23.312;2024-03-22T08:20:02;7.60;;;3.60;;
787;SDS011;16074;42.708;23.312;2024-03-22T08:22:29;5.18;;;3.60;;
787;SDS011;16074;42.708;23.312;2024-03-22T08:24:54;4.67;;;3.33;;
787;SDS011;16074;42.708;23.312;2024-03-22T08:27:21;5.22;;;3.35;;
787;SDS011;16074;42.708;23.312;2024-03-22T08:29:46;5.63;;;3.47;;
787;SDS011;16074;42.708;23.312;2024-03-22T08:32:11;5.57;;;3.97;;
787;SDS011;16074;42.708;23.312;2024-03-22T08:34:36;5.37;;;3.50;;
787;SDS011;16074;42.708;23.312;2024-03-22T08:37:02;6.90;;;3.90;;
787;SDS011;16074;42.708;23.312;2024-03-22T08:39:28;5.53;;;3.30;;
787;SDS011;16074;42.708;23.312;2024-03-22T08:41:54;5.95;;;3.55;;
787;SDS011;16074;42.708;23.312;2024-03-22T08:44:20;7.57;;;3.30;;
787;SDS011;16074;42.708;23.312;2024-03-22T08:46:45;3.63;;;2.83;;
787;SDS011;16074;42.708;23.312;2024-03-22T08:49:11;4.47;;;2.95;;
787;SDS011;16074;42.708;23.312;2024-03-22T08:51:37;4.63;;;3.50;;
787;SDS011;16074;42.708;23.312;2024-03-22T08:54:02;7.73;;;3.80;;
787;SDS011;16074;42.708;23.312;2024-03-22T08:56:28;5.65;;;3.60;;
787;SDS011;16074;42.708;23.312;2024-03-22T08:58:54;6.77;;;3.63;;
787;SDS011;16074;42.708;23.312;2024-03-22T09:01:20;5.75;;;3.25;;
787;SDS011;16074;42.708;23.312;2024-03-22T09:03:45;5.73;;;3.10;;
787;SDS011;16074;42.708;23.312;2024-03-22T09:06:11;3.90;;;2.95;;
787;SDS011;16074;42.708;23.312;2024-03-22T09:08:36;3.83;;;2.80;;
787;SDS011;16074;42.708;23.312;2024-03-22T09:11:02;5.27;;;3.10;;
787;SDS011;16074;42.708;23.312;2024-03-22T09:13:28;5.90;;;3.92;;
787;SDS011;16074;42.708;23.312;2024-03-22T09:15:59;4.43;;;3.10;;
787;SDS011;16074;42.708;23.312;2024-03-22T09:18:24;4.57;;;3.40;;
787;SDS011;16074;42.708;23.312;2024-03-22T09:20:50;3.60;;;2.90;;
787;SDS011;16074;42.708;23.312;2024-03-22T09:23:15;6.37;;;3.20;;
787;SDS011;16074;42.708;23.312;2024-03-22T09:25:40;7.00;;;3.27;;
787;SDS011;16074;42.708;23.312;2024-03-22T09:28:06;5.43;;;3.30;;
787;SDS011;16074;42.708;23.312;2024-03-22T09:30:31;4.60;;;2.77;;
787;SDS011;16074;42.708;23.312;2024-03-22T09:32:56;4.00;;;2.80;;
787;SDS011;16074;42.708;23.312;2024-03-22T09:35:21;4.97;;;3.30;;
787;SDS011;16074;42.708;23.312;2024-03-22T09:37:47;4.33;;;3.30;;
787;SDS011;16074;42.708;23.312;2024-03-22T09:40:12;6.95;;;3.78;;
787;SDS011;16074;42.708;23.312;2024-03-22T09:42:38;6.55;;;2.95;;
787;SDS011;16074;42.708;23.312;2024-03-22T09:47:31;3.63;;;2.63;;
787;SDS011;16074;42.708;23.312;2024-03-22T09:49:58;4.50;;;2.97;;
787;SDS011;16074;42.708;23.312;2024-03-22T09:52:24;4.25;;;2.90;;
787;SDS011;16074;42.708;23.312;2024-03-22T09:54:49;7.05;;;2.88;;
787;SDS011;16074;42.708;23.312;2024-03-22T09:57:16;5.68;;;3.20;;
787;SDS011;16074;42.708;23.312;2024-03-22T09:59:43;5.03;;;2.47;;
787;SDS011;16074;42.708;23.312;2024-03-22T10:02:09;2.80;;;2.50;;
787;SDS011;16074;42.708;23.312;2024-03-22T10:04:36;4.18;;;2.53;;
787;SDS011;16074;42.708;23.312;2024-03-22T10:07:02;4.73;;;2.57;;
787;SDS011;16074;42.708;23.312;2024-03-22T10:09:28;3.85;;;2.75;;
787;SDS011;16074;42.708;23.312;2024-03-22T10:11:54;3.47;;;2.58;;
787;SDS011;16074;42.708;23.312;2024-03-22T10:14:19;4.60;;;2.40;;
787;SDS011;16074;42.708;23.312;2024-03-22T10:16:44;5.10;;;2.67;;
787;SDS011;16074;42.708;23.312;2024-03-22T10:19:10;3.60;;;2.27;;
787;SDS011;16074;42.708;23.312;2024-03-22T10:21:35;2.57;;;2.30;;
787;SDS011;16074;42.708;23.312;2024-03-22T10:24:00;3.60;;;2.57;;
787;SDS011;16074;42.708;23.312;2024-03-22T10:26:25;5.67;;;3.30;;
787;SDS011;16074;42.708;23.312;2024-03-22T10:28:51;6.13;;;3.40;;
787;SDS011;16074;42.708;23.312;2024-03-22T10:31:16;4.47;;;2.87;;
787;SDS011;16074;42.708;23.312;2024-03-22T10:33:41;5.32;;;3.35;;
787;SDS011;16074;42.708;23.312;2024-03-22T10:36:09;3.55;;;2.67;;
787;SDS011;16074;42.708;23.312;2024-03-22T10:38:38;4.70;;;2.85;;
787;SDS011;16074;42.708;23.312;2024-03-22T10:41:03;5.00;;;3.33;;
787;SDS011;16074;42.708;23.312;2024-03-22T10:43:29;5.32;;;2.80;;
787;SDS011;16074;42.708;23.312;2024-03-22T10:45:54;4.50;;;2.80;;
787;SDS011;16074;42.708;23.312;2024-03-22T10:48:21;4.13;;;2.78;;
787;SDS011;16074;42.708;23.312;2024-03-22T10:50:47;4.13;;;2.50;;
787;SDS011;16074;42.708;23.312;2024-03-22T10:53:16;3.50;;;2.47;;
787;SDS011;16074;42.708;23.312;2024-03-22T10:55:43;4.00;;;2.40;;
787;SDS011;16074;42.708;23.312;2024-03-22T10:58:22;3.55;;;2.28;;
787;SDS011;16074;42.708;23.312;2024-03-22T11:00:51;3.67;;;2.50;;
787;SDS011;16074;42.708;23.312;2024-03-22T11:03:19;3.92;;;3.13;;
787;SDS011;16074;42.708;23.312;2024-03-22T11:05:47;4.15;;;2.53;;
787;SDS011;16074;42.708;23.312;2024-03-22T11:08:13;3.40;;;2.45;;
787;SDS011;16074;42.708;23.312;2024-03-22T11:10:39;3.22;;;2.20;;
787;SDS011;16074;42.708;23.312;2024-03-22T11:13:04;4.67;;;2.80;;
787;SDS011;16074;42.708;23.312;2024-03-22T11:15:30;3.80;;;2.47;;
787;SDS011;16074;42.708;23.312;2024-03-22T11:17:55;4.47;;;2.70;;
787;SDS011;16074;42.708;23.312;2024-03-22T11:20:21;3.00;;;2.70;;
787;SDS011;16074;42.708;23.312;2024-03-22T11:22:46;3.83;;;1.93;;
787;SDS011;16074;42.708;23.312;2024-03-22T11:25:11;4.57;;;2.90;;
787;SDS011;16074;42.708;23.312;2024-03-22T11:27:37;3.92;;;2.40;;
787;SDS011;16074;42.708;23.312;2024-03-22T11:30:02;3.93;;;2.40;;
787;SDS011;16074;42.708;23.312;2024-03-22T11:32:28;3.88;;;2.63;;
787;SDS011;16074;42.708;23.312;2024-03-22T11:34:54;3.72;;;3.00;;
787;SDS011;16074;42.708;23.312;2024-03-22T11:37:19;4.83;;;2.70;;
787;SDS011;16074;42.708;23.312;2024-03-22T11:39:44;3.50;;;2.40;;
787;SDS011;16074;42.708;23.312;2024-03-22T11:42:09;4.97;;;2.43;;
787;SDS011;16074;42.708;23.312;2024-03-22T11:44:36;3.40;;;2.70;;
787;SDS011;16074;42.708;23.312;2024-03-22T11:47:02;3.42;;;2.65;;
787;SDS011;16074;42.708;23.312;2024-03-22T11:49:28;3.67;;;2.55;;
787;SDS011;16074;42.708;23.312;2024-03-22T11:51:53;4.65;;;2.42;;
787;SDS011;16074;42.708;23.312;2024-03-22T11:54:20;4.93;;;3.38;;
787;SDS011;16074;42.708;23.312;2024-03-22T11:56:46;3.20;;;2.03;;
787;SDS011;16074;42.708;23.312;2024-03-22T11:59:11;3.10;;;2.20;;
787;SDS011;16074;42.708;23.312;2024-03-22T12:01:36;3.63;;;2.40;;
787;SDS011;16074;42.708;23.312;2024-03-22T12:04:02;3.60;;;2.38;;
787;SDS011;16074;42.708;23.312;2024-03-22T12:06:27;5.50;;;2.60;;
787;SDS011;16074;42.708;23.312;2024-03-22T12:08:52;4.40;;;2.60;;
787;SDS011;16074;42.708;23.312;2024-03-22T12:11:17;3.83;;;2.20;;
787;SDS011;16074;42.708;23.312;2024-03-22T12:13:43;3.73;;;2.50;;
787;SDS011;16074;42.708;23.312;2024-03-22T12:16:08;4.03;;;2.50;;
787;SDS011;16074;42.708;23.312;2024-03-22T12:18:33;3.50;;;2.30;;
787;SDS011;16074;42.708;23.312;2024-03-22T12:20:59;4.80;;;2.40;;
787;SDS011;16074;42.708;23.312;2024-03-22T12:23:24;3.95;;;2.50;;
787;SDS011;16074;42.708;23.312;2024-03-22T12:25:50;3.58;;;2.42;;
787;SDS011;16074;42.708;23.312;2024-03-22T12:28:16;3.22;;;2.60;;
787;SDS011;16074;42.708;23.312;2024-03-22T12:30:41;3.88;;;2.30;;
787;SDS011;16074;42.708;23.312;2024-03-22T12:33:08;4.30;;;2.77;;
787;SDS011;16074;42.708;23.312;2024-03-22T12:35:35;3.75;;;2.58;;
787;SDS011;16074;42.708;23.312;2024-03-22T12:38:00;3.35;;;2.95;;
787;SDS011;16074;42.708;23.312;2024-03-22T12:40:26;3.65;;;2.25;;
787;SDS011;16074;42.708;23.312;2024-03-22T12:42:52;3.35;;;2.28;;
787;SDS011;16074;42.708;23.312;2024-03-22T12:45:17;4.00;;;2.67;;
787;SDS011;16074;42.708;23.312;2024-03-22T12:47:42;4.37;;;2.73;;
787;SDS011;16074;42.708;23.312;2024-03-22T12:50:07;3.63;;;2.53;;
787;SDS011;16074;42.708;23.312;2024-03-22T12:52:33;4.10;;;2.45;;
787;SDS011;16074;42.708;23.312;2024-03-22T12:54:58;2.85;;;2.35;;
787;SDS011;16074;42.708;23.312;2024-03-22T12:57:23;4.18;;;2.38;;
787;SDS011;16074;42.708;23.312;2024-03-22T12:59:49;4.07;;;2.53;;
787;SDS011;16074;42.708;23.312;2024-03-22T13:02:14;4.93;;;2.60;;
787;SDS011;16074;42.708;23.312;2024-03-22T13:04:40;3.88;;;2.47;;
787;SDS011;16074;42.708;23.312;2024-03-22T13:07:05;4.33;;;2.90;;
787;SDS011;16074;42.708;23.312;2024-03-22T13:09:31;3.05;;;2.40;;
787;SDS011;16074;42.708;23.312;2024-03-22T13:11:56;4.03;;;2.50;;
787;SDS011;16074;42.708;23.312;2024-03-22T13:14:21;3.97;;;2.40;;
787;SDS011;16074;42.708;23.312;2024-03-22T13:16:47;2.70;;;2.15;;
787;SDS011;16074;42.708;23.312;2024-03-22T13:19:13;3.63;;;2.30;;
787;SDS011;16074;42.708;23.312;2024-03-22T13:21:39;5.78;;;2.60;;
787;SDS011;16074;42.708;23.312;2024-03-22T13:24:05;3.47;;;2.17;;
787;SDS011;16074;42.708;23.312;2024-03-22T13:26:30;3.95;;;2.70;;
787;SDS011;16074;42.708;23.312;2024-03-22T13:28:55;3.00;;;2.40;;
787;SDS011;16074;42.708;23.312;2024-03-22T13:31:21;3.33;;;2.70;;
787;SDS011;16074;42.708;23.312;2024-03-22T13:33:46;3.93;;;2.87;;
787;SDS011;16074;42.708;23.312;2024-03-22T13:36:12;5.15;;;2.65;;
787;SDS011;16074;42.708;23.312;2024-03-22T13:38:38;3.85;;;2.90;;
787;SDS011;16074;42.708;23.312;2024-03-22T13:41:03;3.70;;;2.37;;
787;SDS011;16074;42.708;23.312;2024-03-22T13:43:29;4.70;;;2.55;;
787;SDS011;16074;42.708;23.312;2024-03-22T13:45:54;3.90;;;2.67;;
787;SDS011;16074;42.708;23.312;2024-03-22T13:48:21;5.55;;;2.78;;
787;SDS011;16074;42.708;23.312;2024-03-22T13:50:49;7.53;;;2.72;;
787;SDS011;16074;42.708;23.312;2024-03-22T13:53:14;3.55;;;2.60;;
787;SDS011;16074;42.708;23.312;2024-03-22T13:55:40;4.75;;;2.63;;
787;SDS011;16074;42.708;23.312;2024-03-22T13:58:07;3.00;;;2.75;;
787;SDS011;16074;42.708;23.312;2024-03-22T14:00:32;3.38;;;2.55;;
787;SDS011;16074;42.708;23.312;2024-03-22T14:02:58;3.25;;;2.50;;
787;SDS011;16074;42.708;23.312;2024-03-22T14:05:24;3.92;;;2.60;;
787;SDS011;16074;42.708;23.312;2024-03-22T14:07:49;4.25;;;2.95;;
787;SDS011;16074;42.708;23.312;2024-03-22T14:10:14;3.08;;;2.60;;
787;SDS011;16074;42.708;23.312;2024-03-22T14:12:41;5.00;;;2.60;;
787;SDS011;16074;42.708;23.312;2024-03-22T14:15:07;4.07;;;2.38;;
787;SDS011;16074;42.708;23.312;2024-03-22T14:17:33;4.47;;;2.38;;
787;SDS011;16074;42.708;23.312;2024-03-22T14:19:58;2.53;;;2.33;;
787;SDS011;16074;42.708;23.312;2024-03-22T14:22:24;3.70;;;2.80;;
787;SDS011;16074;42.708;23.312;2024-03-22T14:24:49;3.27;;;2.93;;
787;SDS011;16074;42.708;23.312;2024-03-22T14:27:14;4.17;;;2.60;;
787;SDS011;16074;42.708;23.312;2024-03-22T14:29:40;4.63;;;2.40;;
787;SDS011;16074;42.708;23.312;2024-03-22T14:32:05;3.57;;;2.67;;
787;SDS011;16074;42.708;23.312;2024-03-22T14:34:32;4.78;;;2.58;;
787;SDS011;16074;42.708;23.312;2024-03-22T14:36:57;3.22;;;2.58;;
787;SDS011;16074;42.708;23.312;2024-03-22T14:39:22;4.47;;;3.03;;
787;SDS011;16074;42.708;23.312;2024-03-22T14:41:48;5.47;;;2.63;;